METAR Data
IDs: Format: Raw Decoded Include TAF

Data at: 2006 UTC 18 Apr 2021

LDDU 182000Z 09006KT CAVOK 10/06 Q1016 NOSIG